sensor_id;sensor_type;location;lat;lon;timestamp;pressure;altitude;pressure_sealevel;temperature;humidity
6694;BME280;3384;42.628;23.380;2023-06-14T00:01:50;94000.19;;;17.74;100.00
6694;BME280;3384;42.628;23.380;2023-06-14T00:04:17;94004.81;;;17.73;100.00
6694;BME280;3384;42.628;23.380;2023-06-14T00:06:46;94002.72;;;17.82;100.00
6694;BME280;3384;42.628;23.380;2023-06-14T00:09:14;94006.19;;;17.83;100.00
6694;BME280;3384;42.628;23.380;2023-06-14T00:11:44;94005.84;;;17.84;100.00
6694;BME280;3384;42.628;23.380;2023-06-14T00:14:11;94002.03;;;17.70;100.00
6694;BME280;3384;42.628;23.380;2023-06-14T00:16:38;93996.25;;;17.71;100.00
6694;BME280;3384;42.628;23.380;2023-06-14T00:19:07;93990.22;;;17.78;100.00
6694;BME280;3384;42.628;23.380;2023-06-14T00:21:35;93994.13;;;17.80;100.00
6694;BME280;3384;42.628;23.380;2023-06-14T00:24:04;93982.59;;;17.83;100.00
6694;BME280;3384;42.628;23.380;2023-06-14T00:26:30;93974.38;;;17.95;100.00
6694;BME280;3384;42.628;23.380;2023-06-14T00:28:59;93983.72;;;17.98;100.00
6694;BME280;3384;42.628;23.380;2023-06-14T00:31:26;93985.91;;;17.92;100.00
6694;BME280;3384;42.628;23.380;2023-06-14T00:33:53;93978.50;;;17.74;100.00
6694;BME280;3384;42.628;23.380;2023-06-14T00:36:20;93984.47;;;17.48;100.00
6694;BME280;3384;42.628;23.380;2023-06-14T00:38:46;93990.50;;;17.57;100.00
6694;BME280;3384;42.628;23.380;2023-06-14T00:41:13;93985.94;;;17.61;100.00
6694;BME280;3384;42.628;23.380;2023-06-14T00:43:40;93985.50;;;17.59;100.00
6694;BME280;3384;42.628;23.380;2023-06-14T00:46:08;93987.59;;;17.66;100.00
6694;BME280;3384;42.628;23.380;2023-06-14T00:48:37;93982.53;;;17.64;100.00
6694;BME280;3384;42.628;23.380;2023-06-14T00:51:04;93983.66;;;17.63;100.00
6694;BME280;3384;42.628;23.380;2023-06-14T00:53:31;93976.03;;;17.69;100.00
6694;BME280;3384;42.628;23.380;2023-06-14T00:56:00;93981.75;;;17.64;100.00
6694;BME280;3384;42.628;23.380;2023-06-14T00:58:27;93973.34;;;17.69;100.00
6694;BME280;3384;42.628;23.380;2023-06-14T01:00:54;93970.28;;;17.70;100.00
6694;BME280;3384;42.628;23.380;2023-06-14T01:03:22;93967.66;;;17.74;100.00
6694;BME280;3384;42.628;23.380;2023-06-14T01:05:56;93974.19;;;17.73;100.00
6694;BME280;3384;42.628;23.380;2023-06-14T01:08:33;93968.97;;;17.80;100.00
6694;BME280;3384;42.628;23.380;2023-06-14T01:11:10;93970.09;;;17.79;100.00
6694;BME280;3384;42.628;23.380;2023-06-14T01:13:39;93968.88;;;17.61;100.00
6694;BME280;3384;42.628;23.380;2023-06-14T01:16:08;93974.03;;;17.50;100.00
6694;BME280;3384;42.628;23.380;2023-06-14T01:18:36;93970.47;;;17.46;100.00
6694;BME280;3384;42.628;23.380;2023-06-14T01:21:03;93974.75;;;17.63;100.00
6694;BME280;3384;42.628;23.380;2023-06-14T01:23:32;93970.28;;;17.70;100.00
6694;BME280;3384;42.628;23.380;2023-06-14T01:26:00;93973.25;;;17.65;100.00
6694;BME280;3384;42.628;23.380;2023-06-14T01:28:29;93982.53;;;17.64;100.00
6694;BME280;3384;42.628;23.380;2023-06-14T01:31:00;93975.00;;;17.73;100.00
6694;BME280;3384;42.628;23.380;2023-06-14T01:33:29;93978.34;;;17.51;100.00
6694;BME280;3384;42.628;23.380;2023-06-14T01:35:57;93978.16;;;17.60;100.00
6694;BME280;3384;42.628;23.380;2023-06-14T01:38:25;93971.78;;;17.52;100.00
6694;BME280;3384;42.628;23.380;2023-06-14T01:40:55;93975.63;;;17.51;100.00
6694;BME280;3384;42.628;23.380;2023-06-14T01:43:23;93971.31;;;17.66;100.00
6694;BME280;3384;42.628;23.380;2023-06-14T01:45:53;93969.16;;;17.71;100.00
6694;BME280;3384;42.628;23.380;2023-06-14T01:48:20;93968.03;;;17.57;100.00
6694;BME280;3384;42.628;23.380;2023-06-14T01:50:48;93962.78;;;17.64;100.00
6694;BME280;3384;42.628;23.380;2023-06-14T01:53:15;93965.84;;;17.62;100.00
6694;BME280;3384;42.628;23.380;2023-06-14T01:55:42;93964.25;;;17.61;100.00
6694;BME280;3384;42.628;23.380;2023-06-14T01:58:15;93972.06;;;17.63;100.00
6694;BME280;3384;42.628;23.380;2023-06-14T02:00:42;93964.09;;;17.54;100.00
6694;BME280;3384;42.628;23.380;2023-06-14T02:03:10;93974.47;;;17.52;100.00
6694;BME280;3384;42.628;23.380;2023-06-14T02:05:38;93966.28;;;17.49;100.00
6694;BME280;3384;42.628;23.380;2023-06-14T02:08:05;93980.88;;;17.44;100.00
6694;BME280;3384;42.628;23.380;2023-06-14T02:10:32;93975.19;;;17.49;100.00
6694;BME280;3384;42.628;23.380;2023-06-14T02:12:59;93982.78;;;17.59;100.00
6694;BME280;3384;42.628;23.380;2023-06-14T02:15:27;93976.22;;;17.60;100.00
6694;BME280;3384;42.628;23.380;2023-06-14T02:18:00;93970.59;;;17.22;100.00
6694;BME280;3384;42.628;23.380;2023-06-14T02:20:27;93977.72;;;17.42;100.00
6694;BME280;3384;42.628;23.380;2023-06-14T02:22:54;93984.88;;;17.50;100.00
6694;BME280;3384;42.628;23.380;2023-06-14T02:25:21;93983.81;;;17.39;100.00
6694;BME280;3384;42.628;23.380;2023-06-14T02:27:48;93988.88;;;17.41;100.00
6694;BME280;3384;42.628;23.380;2023-06-14T02:30:15;93982.31;;;17.26;100.00
6694;BME280;3384;42.628;23.380;2023-06-14T02:32:43;93986.78;;;17.34;100.00
6694;BME280;3384;42.628;23.380;2023-06-14T02:35:10;93991.38;;;17.18;100.00
6694;BME280;3384;42.628;23.380;2023-06-14T02:37:37;93993.75;;;17.20;100.00
6694;BME280;3384;42.628;23.380;2023-06-14T02:40:05;93983.19;;;17.15;100.00
6694;BME280;3384;42.628;23.380;2023-06-14T02:42:32;93993.72;;;17.04;100.00
6694;BME280;3384;42.628;23.380;2023-06-14T02:44:59;93979.81;;;16.90;100.00
6694;BME280;3384;42.628;23.380;2023-06-14T02:47:25;93989.69;;;16.98;100.00
6694;BME280;3384;42.628;23.380;2023-06-14T02:49:54;93996.88;;;17.06;100.00
6694;BME280;3384;42.628;23.380;2023-06-14T02:52:20;93997.84;;;17.14;100.00
6694;BME280;3384;42.628;23.380;2023-06-14T02:54:47;94001.25;;;17.11;100.00
6694;BME280;3384;42.628;23.380;2023-06-14T02:57:14;93985.53;;;17.16;100.00
6694;BME280;3384;42.628;23.380;2023-06-14T02:59:41;93994.66;;;16.96;100.00
6694;BME280;3384;42.628;23.380;2023-06-14T03:02:08;94002.09;;;16.99;100.00
6694;BME280;3384;42.628;23.380;2023-06-14T03:04:35;93998.28;;;17.16;100.00
6694;BME280;3384;42.628;23.380;2023-06-14T03:07:05;94006.97;;;17.37;100.00
6694;BME280;3384;42.628;23.380;2023-06-14T03:09:35;93996.13;;;17.37;100.00
6694;BME280;3384;42.628;23.380;2023-06-14T03:12:02;94001.19;;;17.38;100.00
6694;BME280;3384;42.628;23.380;2023-06-14T03:14:29;94000.31;;;17.34;100.00
6694;BME280;3384;42.628;23.380;2023-06-14T03:16:56;94001.72;;;17.28;100.00
6694;BME280;3384;42.628;23.380;2023-06-14T03:19:24;94007.16;;;17.44;100.00
6694;BME280;3384;42.628;23.380;2023-06-14T03:21:52;94003.00;;;17.19;100.00
6694;BME280;3384;42.628;23.380;2023-06-14T03:24:20;94013.06;;;17.34;100.00
6694;BME280;3384;42.628;23.380;2023-06-14T03:26:47;94009.94;;;17.32;100.00
6694;BME280;3384;42.628;23.380;2023-06-14T03:29:14;94020.28;;;17.42;100.00
6694;BME280;3384;42.628;23.380;2023-06-14T03:31:57;94009.03;;;17.55;100.00
6694;BME280;3384;42.628;23.380;2023-06-14T03:34:24;94015.13;;;17.52;100.00
6694;BME280;3384;42.628;23.380;2023-06-14T03:36:51;94006.75;;;17.57;100.00
6694;BME280;3384;42.628;23.380;2023-06-14T03:39:20;94016.69;;;17.53;100.00
6694;BME280;3384;42.628;23.380;2023-06-14T03:41:46;94019.06;;;17.55;100.00
6694;BME280;3384;42.628;23.380;2023-06-14T03:44:15;94024.59;;;17.58;100.00
6694;BME280;3384;42.628;23.380;2023-06-14T03:46:42;94014.97;;;17.45;100.00
6694;BME280;3384;42.628;23.380;2023-06-14T03:49:09;94014.78;;;17.54;100.00
6694;BME280;3384;42.628;23.380;2023-06-14T03:51:37;94022.91;;;17.54;100.00
6694;BME280;3384;42.628;23.380;2023-06-14T03:54:05;94015.31;;;17.59;100.00
6694;BME280;3384;42.628;23.380;2023-06-14T03:56:34;94018.28;;;17.54;100.00
6694;BME280;3384;42.628;23.380;2023-06-14T03:59:01;94023.44;;;17.44;100.00
6694;BME280;3384;42.628;23.380;2023-06-14T04:01:28;94024.72;;;17.34;100.00
6694;BME280;3384;42.628;23.380;2023-06-14T04:03:56;94026.03;;;17.40;100.00
6694;BME280;3384;42.628;23.380;2023-06-14T04:06:23;94022.53;;;17.40;100.00
6694;BME280;3384;42.628;23.380;2023-06-14T04:08:58;94029.44;;;17.37;100.00
6694;BME280;3384;42.628;23.380;2023-06-14T04:11:29;94028.94;;;17.20;100.00
6694;BME280;3384;42.628;23.380;2023-06-14T04:13:58;94030.19;;;17.22;100.00
6694;BME280;3384;42.628;23.380;2023-06-14T04:16:24;94030.81;;;17.31;100.00
6694;BME280;3384;42.628;23.380;2023-06-14T04:18:51;94031.97;;;17.30;100.00
6694;BME280;3384;42.628;23.380;2023-06-14T04:21:18;94032.34;;;17.44;100.00
6694;BME280;3384;42.628;23.380;2023-06-14T04:23:45;94032.00;;;17.46;100.00
6694;BME280;3384;42.628;23.380;2023-06-14T04:26:12;94030.00;;;17.74;100.00
6694;BME280;3384;42.628;23.380;2023-06-14T04:28:39;94030.94;;;17.66;100.00
6694;BME280;3384;42.628;23.380;2023-06-14T04:31:08;94032.44;;;17.63;100.00
6694;BME280;3384;42.628;23.380;2023-06-14T04:33:37;94030.97;;;17.23;100.00
6694;BME280;3384;42.628;23.380;2023-06-14T04:36:09;94032.84;;;17.34;100.00
6694;BME280;3384;42.628;23.380;2023-06-14T04:38:37;94020.72;;;17.59;100.00
6694;BME280;3384;42.628;23.380;2023-06-14T04:41:04;94030.06;;;17.77;100.00
6694;BME280;3384;42.628;23.380;2023-06-14T04:43:31;94030.19;;;17.81;100.00
6694;BME280;3384;42.628;23.380;2023-06-14T04:46:03;94027.03;;;17.79;100.00
6694;BME280;3384;42.628;23.380;2023-06-14T04:48:32;94027.72;;;17.91;100.00
6694;BME280;3384;42.628;23.380;2023-06-14T04:50:59;94029.13;;;18.01;100.00
6694;BME280;3384;42.628;23.380;2023-06-14T04:53:26;94026.16;;;17.90;100.00
6694;BME280;3384;42.628;23.380;2023-06-14T04:55:54;94033.13;;;17.91;100.00
6694;BME280;3384;42.628;23.380;2023-06-14T04:58:21;94037.44;;;17.77;100.00
6694;BME280;3384;42.628;23.380;2023-06-14T05:00:48;94033.31;;;17.83;100.00
6694;BME280;3384;42.628;23.380;2023-06-14T05:03:15;94035.50;;;17.93;100.00
6694;BME280;3384;42.628;23.380;2023-06-14T05:05:45;94042.75;;;18.04;100.00
6694;BME280;3384;42.628;23.380;2023-06-14T05:08:11;94037.59;;;18.15;100.00
6694;BME280;3384;42.628;23.380;2023-06-14T05:10:38;94039.38;;;18.26;100.00
6694;BME280;3384;42.628;23.380;2023-06-14T05:13:05;94035.56;;;18.12;100.00
6694;BME280;3384;42.628;23.380;2023-06-14T05:15:32;94044.16;;;17.98;100.00
6694;BME280;3384;42.628;23.380;2023-06-14T05:17:59;94047.13;;;17.93;100.00
6694;BME280;3384;42.628;23.380;2023-06-14T05:20:26;94049.91;;;17.97;100.00
6694;BME280;3384;42.628;23.380;2023-06-14T05:22:55;94047.38;;;17.88;100.00
6694;BME280;3384;42.628;23.380;2023-06-14T05:25:22;94061.91;;;17.96;100.00
6694;BME280;3384;42.628;23.380;2023-06-14T05:27:49;94065.16;;;18.01;100.00
6694;BME280;3384;42.628;23.380;2023-06-14T05:30:16;94060.41;;;17.98;100.00
6694;BME280;3384;42.628;23.380;2023-06-14T05:32:43;94062.34;;;18.44;100.00
6694;BME280;3384;42.628;23.380;2023-06-14T05:35:10;94068.56;;;17.98;100.00
6694;BME280;3384;42.628;23.380;2023-06-14T05:37:37;94067.75;;;18.29;100.00
6694;BME280;3384;42.628;23.380;2023-06-14T05:40:07;94071.91;;;17.92;100.00
6694;BME280;3384;42.628;23.380;2023-06-14T05:42:35;94063.09;;;18.29;100.00
6694;BME280;3384;42.628;23.380;2023-06-14T05:45:02;94065.22;;;18.70;100.00
6694;BME280;3384;42.628;23.380;2023-06-14T05:47:29;94060.19;;;18.88;100.00
6694;BME280;3384;42.628;23.380;2023-06-14T05:49:56;94068.66;;;18.17;100.00
6694;BME280;3384;42.628;23.380;2023-06-14T05:52:22;94070.38;;;18.75;100.00
6694;BME280;3384;42.628;23.380;2023-06-14T05:54:50;94066.91;;;18.40;100.00
6694;BME280;3384;42.628;23.380;2023-06-14T05:57:18;94068.19;;;18.46;100.00
6694;BME280;3384;42.628;23.380;2023-06-14T05:59:45;94079.16;;;18.19;100.00
6694;BME280;3384;42.628;23.380;2023-06-14T06:02:12;94079.13;;;18.50;100.00
6694;BME280;3384;42.628;23.380;2023-06-14T06:04:39;94070.78;;;18.58;100.00
6694;BME280;3384;42.628;23.380;2023-06-14T06:07:06;94074.94;;;18.71;100.00
6694;BME280;3384;42.628;23.380;2023-06-14T06:09:33;94068.72;;;18.36;100.00
6694;BME280;3384;42.628;23.380;2023-06-14T06:12:00;94078.69;;;18.48;100.00
6694;BME280;3384;42.628;23.380;2023-06-14T06:14:28;94073.16;;;18.60;100.00
6694;BME280;3384;42.628;23.380;2023-06-14T06:16:55;94070.78;;;19.12;100.00
6694;BME280;3384;42.628;23.380;2023-06-14T06:19:21;94076.16;;;18.39;100.00
6694;BME280;3384;42.628;23.380;2023-06-14T06:21:48;94076.94;;;18.74;100.00
6694;BME280;3384;42.628;23.380;2023-06-14T06:24:15;94069.25;;;19.15;100.00
6694;BME280;3384;42.628;23.380;2023-06-14T06:26:42;94071.97;;;18.95;100.00
6694;BME280;3384;42.628;23.380;2023-06-14T06:29:09;94076.47;;;18.88;100.00
6694;BME280;3384;42.628;23.380;2023-06-14T06:31:37;94077.75;;;18.94;100.00
6694;BME280;3384;42.628;23.380;2023-06-14T06:34:04;94075.56;;;18.99;100.00
6694;BME280;3384;42.628;23.380;2023-06-14T06:36:31;94085.28;;;19.00;100.00
6694;BME280;3384;42.628;23.380;2023-06-14T06:38:57;94083.78;;;19.22;100.00
6694;BME280;3384;42.628;23.380;2023-06-14T06:41:24;94078.13;;;19.12;100.00
6694;BME280;3384;42.628;23.380;2023-06-14T06:43:52;94087.03;;;18.74;100.00
6694;BME280;3384;42.628;23.380;2023-06-14T06:46:19;94093.06;;;18.67;100.00
6694;BME280;3384;42.628;23.380;2023-06-14T06:48:47;94099.59;;;18.63;100.00
6694;BME280;3384;42.628;23.380;2023-06-14T06:51:14;94102.72;;;18.65;100.00
6694;BME280;3384;42.628;23.380;2023-06-14T06:53:42;94098.44;;;18.64;100.00
6694;BME280;3384;42.628;23.380;2023-06-14T06:56:09;94099.00;;;18.73;100.00
6694;BME280;3384;42.628;23.380;2023-06-14T06:58:36;94094.88;;;19.14;100.00
6694;BME280;3384;42.628;23.380;2023-06-14T07:01:03;94087.47;;;19.14;100.00
6694;BME280;3384;42.628;23.380;2023-06-14T07:03:30;94081.22;;;19.29;100.00
6694;BME280;3384;42.628;23.380;2023-06-14T07:05:58;94083.13;;;19.48;100.00
6694;BME280;3384;42.628;23.380;2023-06-14T07:08:25;94076.75;;;19.21;100.00
6694;BME280;3384;42.628;23.380;2023-06-14T07:10:52;94083.59;;;19.31;100.00
6694;BME280;3384;42.628;23.380;2023-06-14T07:13:19;94077.69;;;19.48;100.00
6694;BME280;3384;42.628;23.380;2023-06-14T07:15:46;94073.13;;;19.52;100.00
6694;BME280;3384;42.628;23.380;2023-06-14T07:18:13;94075.41;;;19.12;100.00
6694;BME280;3384;42.628;23.380;2023-06-14T07:20:40;94073.69;;;19.23;100.00
6694;BME280;3384;42.628;23.380;2023-06-14T07:23:09;94067.38;;;19.57;100.00
6694;BME280;3384;42.628;23.380;2023-06-14T07:25:36;94072.03;;;19.79;100.00
6694;BME280;3384;42.628;23.380;2023-06-14T07:28:03;94063.28;;;19.89;100.00
6694;BME280;3384;42.628;23.380;2023-06-14T07:30:30;94066.09;;;20.41;100.00
6694;BME280;3384;42.628;23.380;2023-06-14T07:32:57;94056.38;;;20.14;100.00
6694;BME280;3384;42.628;23.380;2023-06-14T07:35:24;94059.78;;;20.33;100.00
6694;BME280;3384;42.628;23.380;2023-06-14T07:37:51;94059.44;;;19.67;100.00
6694;BME280;3384;42.628;23.380;2023-06-14T07:40:23;94048.00;;;19.81;100.00
6694;BME280;3384;42.628;23.380;2023-06-14T07:43:04;94054.53;;;19.99;100.00
6694;BME280;3384;42.628;23.380;2023-06-14T07:45:31;94059.25;;;20.24;100.00
6694;BME280;3384;42.628;23.380;2023-06-14T07:47:58;94065.47;;;20.25;100.00
6694;BME280;3384;42.628;23.380;2023-06-14T07:50:24;94060.66;;;20.41;100.00
6694;BME280;3384;42.628;23.380;2023-06-14T07:52:51;94063.75;;;20.39;100.00
6694;BME280;3384;42.628;23.380;2023-06-14T07:55:19;94064.88;;;19.90;100.00
6694;BME280;3384;42.628;23.380;2023-06-14T07:57:46;94082.03;;;19.94;100.00
6694;BME280;3384;42.628;23.380;2023-06-14T08:00:14;94073.53;;;20.18;100.00
6694;BME280;3384;42.628;23.380;2023-06-14T08:02:41;94071.34;;;20.27;100.00
6694;BME280;3384;42.628;23.380;2023-06-14T08:05:09;94071.91;;;20.13;100.00
6694;BME280;3384;42.628;23.380;2023-06-14T08:07:37;94080.66;;;20.26;100.00
6694;BME280;3384;42.628;23.380;2023-06-14T08:10:04;94079.00;;;20.70;100.00
6694;BME280;3384;42.628;23.380;2023-06-14T08:12:33;94083.69;;;20.21;100.00
6694;BME280;3384;42.628;23.380;2023-06-14T08:15:02;94089.72;;;20.33;100.00
6694;BME280;3384;42.628;23.380;2023-06-14T08:17:29;94083.81;;;20.54;100.00
6694;BME280;3384;42.628;23.380;2023-06-14T08:19:56;94096.38;;;20.36;100.00
6694;BME280;3384;42.628;23.380;2023-06-14T08:22:24;94087.38;;;20.58;100.00
6694;BME280;3384;42.628;23.380;2023-06-14T08:24:53;94089.41;;;21.16;100.00
6694;BME280;3384;42.628;23.380;2023-06-14T08:27:20;94079.50;;;21.05;100.00
6694;BME280;3384;42.628;23.380;2023-06-14T08:29:49;94079.19;;;20.84;100.00
6694;BME280;3384;42.628;23.380;2023-06-14T08:32:16;94079.66;;;20.89;100.00
6694;BME280;3384;42.628;23.380;2023-06-14T08:34:43;94088.16;;;21.14;100.00
6694;BME280;3384;42.628;23.380;2023-06-14T08:37:10;94075.72;;;21.46;100.00
6694;BME280;3384;42.628;23.380;2023-06-14T08:39:37;94079.50;;;21.38;100.00
6694;BME280;3384;42.628;23.380;2023-06-14T08:42:05;94076.13;;;21.48;100.00
6694;BME280;3384;42.628;23.380;2023-06-14T08:44:33;94081.94;;;20.84;100.00
6694;BME280;3384;42.628;23.380;2023-06-14T08:47:02;94065.63;;;21.17;100.00
6694;BME280;3384;42.628;23.380;2023-06-14T08:49:31;94067.34;;;20.99;100.00
6694;BME280;3384;42.628;23.380;2023-06-14T08:51:59;94078.22;;;21.25;100.00
6694;BME280;3384;42.628;23.380;2023-06-14T08:54:27;94070.94;;;20.77;100.00
6694;BME280;3384;42.628;23.380;2023-06-14T08:56:55;94071.44;;;20.86;100.00
6694;BME280;3384;42.628;23.380;2023-06-14T08:59:24;94077.09;;;21.00;100.00
6694;BME280;3384;42.628;23.380;2023-06-14T09:01:52;94071.06;;;21.13;100.00
6694;BME280;3384;42.628;23.380;2023-06-14T09:04:21;94069.81;;;21.07;100.00
6694;BME280;3384;42.628;23.380;2023-06-14T09:06:50;94066.88;;;21.23;100.00
6694;BME280;3384;42.628;23.380;2023-06-14T09:09:19;94062.72;;;21.69;100.00
6694;BME280;3384;42.628;23.380;2023-06-14T09:11:46;94058.66;;;21.89;100.00
6694;BME280;3384;42.628;23.380;2023-06-14T09:14:13;94050.84;;;21.51;100.00
6694;BME280;3384;42.628;23.380;2023-06-14T09:16:40;94050.81;;;21.47;100.00
6694;BME280;3384;42.628;23.380;2023-06-14T09:19:07;94059.81;;;21.51;100.00
6694;BME280;3384;42.628;23.380;2023-06-14T09:21:35;94052.03;;;21.53;100.00
6694;BME280;3384;42.628;23.380;2023-06-14T09:24:03;94048.38;;;21.39;100.00
6694;BME280;3384;42.628;23.380;2023-06-14T09:26:30;94047.94;;;21.33;100.00
6694;BME280;3384;42.628;23.380;2023-06-14T09:28:57;94054.53;;;21.69;100.00
6694;BME280;3384;42.628;23.380;2023-06-14T09:31:24;94043.63;;;21.69;100.00
6694;BME280;3384;42.628;23.380;2023-06-14T09:33:51;94045.19;;;22.07;100.00
6694;BME280;3384;42.628;23.380;2023-06-14T09:36:22;94045.88;;;21.97;100.00
6694;BME280;3384;42.628;23.380;2023-06-14T09:38:53;94041.91;;;21.87;100.00
6694;BME280;3384;42.628;23.380;2023-06-14T09:41:21;94054.63;;;21.76;100.00
6694;BME280;3384;42.628;23.380;2023-06-14T09:43:48;94049.38;;;21.60;100.00
6694;BME280;3384;42.628;23.380;2023-06-14T09:46:16;94038.31;;;21.83;100.00
6694;BME280;3384;42.628;23.380;2023-06-14T09:48:42;94028.00;;;22.03;100.00
6694;BME280;3384;42.628;23.380;2023-06-14T09:51:10;94037.00;;;22.10;100.00
6694;BME280;3384;42.628;23.380;2023-06-14T09:53:41;94033.66;;;21.80;100.00
6694;BME280;3384;42.628;23.380;2023-06-14T09:56:11;94032.84;;;22.23;100.00
6694;BME280;3384;42.628;23.380;2023-06-14T09:58:39;94027.59;;;22.01;100.00
6694;BME280;3384;42.628;23.380;2023-06-14T10:01:08;94023.50;;;21.81;100.00
6694;BME280;3384;42.628;23.380;2023-06-14T10:03:39;94030.16;;;21.83;100.00
6694;BME280;3384;42.628;23.380;2023-06-14T10:06:08;94018.16;;;21.95;100.00
6694;BME280;3384;42.628;23.380;2023-06-14T10:08:36;94014.03;;;22.62;100.00
6694;BME280;3384;42.628;23.380;2023-06-14T10:11:03;94014.59;;;22.34;100.00
6694;BME280;3384;42.628;23.380;2023-06-14T10:13:33;94016.47;;;22.77;100.00
6694;BME280;3384;42.628;23.380;2023-06-14T10:16:07;94008.28;;;22.84;100.00
6694;BME280;3384;42.628;23.380;2023-06-14T10:18:43;94001.13;;;22.62;100.00
6694;BME280;3384;42.628;23.380;2023-06-14T10:21:20;93991.31;;;22.51;100.00
6694;BME280;3384;42.628;23.380;2023-06-14T10:23:49;93989.53;;;22.86;100.00
6694;BME280;3384;42.628;23.380;2023-06-14T10:26:20;94000.38;;;22.62;100.00
6694;BME280;3384;42.628;23.380;2023-06-14T10:28:57;93998.09;;;22.74;100.00
6694;BME280;3384;42.628;23.380;2023-06-14T10:31:40;93991.56;;;23.00;100.00
6694;BME280;3384;42.628;23.380;2023-06-14T10:34:07;93998.16;;;22.88;100.00
6694;BME280;3384;42.628;23.380;2023-06-14T10:36:34;94003.03;;;22.51;100.00
6694;BME280;3384;42.628;23.380;2023-06-14T10:39:05;93992.09;;;22.51;100.00
6694;BME280;3384;42.628;23.380;2023-06-14T10:41:35;93979.47;;;23.01;100.00
6694;BME280;3384;42.628;23.380;2023-06-14T10:44:35;93989.25;;;23.05;100.00
6694;BME280;3384;42.628;23.380;2023-06-14T10:47:07;93987.72;;;23.18;100.00
6694;BME280;3384;42.628;23.380;2023-06-14T10:49:39;93979.84;;;22.99;100.00
6694;BME280;3384;42.628;23.380;2023-06-14T10:52:08;93985.56;;;22.73;100.00
6694;BME280;3384;42.628;23.380;2023-06-14T10:54:55;93977.44;;;22.23;100.00
6694;BME280;3384;42.628;23.380;2023-06-14T10:57:22;93973.44;;;22.60;100.00
6694;BME280;3384;42.628;23.380;2023-06-14T10:59:51;93959.03;;;22.70;100.00
6694;BME280;3384;42.628;23.380;2023-06-14T11:05:14;93960.31;;;22.97;100.00
6694;BME280;3384;42.628;23.380;2023-06-14T11:07:51;93962.84;;;22.52;100.00
6694;BME280;3384;42.628;23.380;2023-06-14T11:10:29;93962.69;;;22.34;100.00
6694;BME280;3384;42.628;23.380;2023-06-14T11:13:00;93958.81;;;22.39;100.00
6694;BME280;3384;42.628;23.380;2023-06-14T11:15:30;93962.41;;;22.46;100.00
6694;BME280;3384;42.628;23.380;2023-06-14T11:17:57;93956.16;;;22.49;100.00
6694;BME280;3384;42.628;23.380;2023-06-14T11:20:25;93953.59;;;22.77;100.00
6694;BME280;3384;42.628;23.380;2023-06-14T11:22:53;93955.09;;;22.64;100.00
6694;BME280;3384;42.628;23.380;2023-06-14T11:25:20;93943.09;;;22.86;100.00
6694;BME280;3384;42.628;23.380;2023-06-14T11:27:49;93935.59;;;22.66;100.00
6694;BME280;3384;42.628;23.380;2023-06-14T11:30:16;93940.22;;;22.58;100.00
6694;BME280;3384;42.628;23.380;2023-06-14T11:32:47;93938.41;;;22.87;100.00
6694;BME280;3384;42.628;23.380;2023-06-14T11:35:15;93940.91;;;23.30;100.00
6694;BME280;3384;42.628;23.380;2023-06-14T11:37:43;93944.66;;;22.94;100.00
6694;BME280;3384;42.628;23.380;2023-06-14T11:40:11;93944.81;;;23.22;100.00
6694;BME280;3384;42.628;23.380;2023-06-14T11:42:40;93943.91;;;22.94;100.00
6694;BME280;3384;42.628;23.380;2023-06-14T11:45:09;93940.13;;;23.30;100.00
6694;BME280;3384;42.628;23.380;2023-06-14T11:47:37;93931.06;;;23.05;100.00
6694;BME280;3384;42.628;23.380;2023-06-14T11:50:07;93925.91;;;22.82;100.00
6694;BME280;3384;42.628;23.380;2023-06-14T11:52:36;93929.50;;;23.07;100.00
6694;BME280;3384;42.628;23.380;2023-06-14T11:55:03;93923.63;;;23.09;100.00
6694;BME280;3384;42.628;23.380;2023-06-14T11:57:34;93914.28;;;23.13;100.00
6694;BME280;3384;42.628;23.380;2023-06-14T12:00:03;93908.03;;;23.16;100.00
6694;BME280;3384;42.628;23.380;2023-06-14T12:02:33;93899.88;;;23.23;100.00
6694;BME280;3384;42.628;23.380;2023-06-14T12:05:06;93897.16;;;23.48;100.00
6694;BME280;3384;42.628;23.380;2023-06-14T12:07:37;93890.16;;;23.43;100.00
6694;BME280;3384;42.628;23.380;2023-06-14T12:10:08;93887.81;;;23.70;100.00
6694;BME280;3384;42.628;23.380;2023-06-14T12:12:39;93888.50;;;23.14;100.00
6694;BME280;3384;42.628;23.380;2023-06-14T12:15:08;93891.63;;;23.20;100.00
6694;BME280;3384;42.628;23.380;2023-06-14T12:17:38;93900.50;;;22.82;100.00
6694;BME280;3384;42.628;23.380;2023-06-14T12:20:10;93900.19;;;23.01;100.00
6694;BME280;3384;42.628;23.380;2023-06-14T12:22:46;93894.03;;;23.35;100.00
6694;BME280;3384;42.628;23.380;2023-06-14T12:25:23;93892.41;;;23.13;100.00
6694;BME280;3384;42.628;23.380;2023-06-14T12:27:52;93888.50;;;23.21;100.00
6694;BME280;3384;42.628;23.380;2023-06-14T12:30:19;93887.75;;;23.24;100.00
6694;BME280;3384;42.628;23.380;2023-06-14T12:32:46;93883.84;;;23.32;100.00
6694;BME280;3384;42.628;23.380;2023-06-14T12:35:16;93878.03;;;23.58;100.00
6694;BME280;3384;42.628;23.380;2023-06-14T12:37:43;93877.22;;;23.58;100.00
6694;BME280;3384;42.628;23.380;2023-06-14T12:40:11;93875.28;;;23.65;100.00
6694;BME280;3384;42.628;23.380;2023-06-14T12:42:39;93872.16;;;23.70;100.00
6694;BME280;3384;42.628;23.380;2023-06-14T12:45:06;93869.03;;;23.61;100.00
6694;BME280;3384;42.628;23.380;2023-06-14T12:47:35;93882.72;;;23.72;100.00
6694;BME280;3384;42.628;23.380;2023-06-14T12:50:02;93865.13;;;23.80;100.00
6694;BME280;3384;42.628;23.380;2023-06-14T12:52:30;93865.50;;;23.33;100.00
6694;BME280;3384;42.628;23.380;2023-06-14T12:55:01;93863.09;;;23.10;100.00
6694;BME280;3384;42.628;23.380;2023-06-14T12:57:28;93865.06;;;23.06;100.00
6694;BME280;3384;42.628;23.380;2023-06-14T12:59:55;93883.72;;;22.73;100.00
6694;BME280;3384;42.628;23.380;2023-06-14T13:02:21;93888.72;;;22.53;100.00
6694;BME280;3384;42.628;23.380;2023-06-14T13:04:50;93886.66;;;22.36;100.00
6694;BME280;3384;42.628;23.380;2023-06-14T13:07:17;93886.78;;;21.96;100.00
6694;BME280;3384;42.628;23.380;2023-06-14T13:09:45;93890.28;;;21.90;100.00